createdAt,value
2022-08-30T00:01:13.609Z,43.51
2022-08-30T00:03:59.744Z,43.58
2022-08-30T00:06:43.811Z,43.83
2022-08-30T00:09:29.206Z,43.84
2022-08-30T00:12:13.195Z,43.74
2022-08-30T00:14:57.205Z,43.91
2022-08-30T00:17:41.567Z,43.64
2022-08-30T00:20:28.909Z,43.48
2022-08-30T00:23:13.629Z,43.66
2022-08-30T00:25:59.187Z,43.55
2022-08-30T00:28:43.101Z,43.69
2022-08-30T00:31:27.011Z,43.60
2022-08-30T00:34:10.887Z,43.60
2022-08-30T00:36:54.837Z,43.72
2022-08-30T00:39:38.895Z,44.14
2022-08-30T00:42:24.166Z,44.51
2022-08-30T00:45:15.819Z,45.45
2022-08-30T00:48:00.419Z,46.00
2022-08-30T00:50:48.139Z,45.88
2022-08-30T00:53:35.354Z,45.44
2022-08-30T00:56:20.351Z,45.33
2022-08-30T00:59:08.814Z,44.97
2022-08-30T01:01:53.902Z,44.77
2022-08-30T01:04:40.811Z,44.42
2022-08-30T01:07:25.327Z,44.29
2022-08-30T01:10:11.710Z,44.20
2022-08-30T01:12:55.730Z,44.10
2022-08-30T01:15:41.306Z,43.69
2022-08-30T01:18:26.307Z,44.37
2022-08-30T01:21:17.856Z,44.87
2022-08-30T01:24:04.582Z,45.86
2022-08-30T01:26:48.445Z,45.83
2022-08-30T01:29:32.459Z,45.83
2022-08-30T01:32:21.355Z,46.82
2022-08-30T01:35:05.537Z,46.77
2022-08-30T01:37:50.123Z,46.73
2022-08-30T01:40:37.353Z,46.23
2022-08-30T01:43:21.374Z,46.20
2022-08-30T01:46:05.426Z,46.24
2022-08-30T01:48:53.019Z,45.74
2022-08-30T01:51:39.270Z,45.99
2022-08-30T01:54:23.078Z,45.61
2022-08-30T01:57:15.385Z,45.27
2022-08-30T01:59:59.364Z,45.09
2022-08-30T02:02:43.914Z,44.80
2022-08-30T02:05:27.881Z,45.39
2022-08-30T02:08:11.736Z,45.31
2022-08-30T02:10:55.663Z,45.67
2022-08-30T02:13:43.175Z,46.53
2022-08-30T02:16:27.731Z,46.44
2022-08-30T02:19:12.868Z,46.28
2022-08-30T02:21:58.968Z,46.25
2022-08-30T02:24:42.804Z,46.68
2022-08-30T02:27:27.307Z,46.94
2022-08-30T02:30:14.177Z,47.55
2022-08-30T02:32:58.084Z,46.70
2022-08-30T02:35:42.441Z,46.62
2022-08-30T02:38:27.163Z,46.55
2022-08-30T02:41:11.053Z,46.85
2022-08-30T02:43:58.492Z,46.91
2022-08-30T02:46:43.789Z,47.30
2022-08-30T02:49:33.513Z,47.04
2022-08-30T02:52:17.775Z,47.03
2022-08-30T02:55:01.713Z,46.63
2022-08-30T02:57:50.267Z,46.64
2022-08-30T03:00:34.578Z,46.39
2022-08-30T03:03:20.241Z,46.46
2022-08-30T03:06:04.522Z,47.05
2022-08-30T03:08:48.346Z,46.24
2022-08-30T03:11:32.939Z,46.37
2022-08-30T03:14:16.808Z,46.80
2022-08-30T03:17:00.693Z,47.03
2022-08-30T03:19:46.622Z,46.90
2022-08-30T03:22:30.854Z,46.94
2022-08-30T03:25:16.129Z,46.87
2022-08-30T03:27:59.993Z,46.86
2022-08-30T03:30:43.835Z,46.96
2022-08-30T03:33:28.139Z,47.19
2022-08-30T03:36:13.640Z,47.17
2022-08-30T03:38:58.061Z,46.93
2022-08-30T03:41:41.806Z,47.35
2022-08-30T03:44:26.465Z,46.95
2022-08-30T03:47:11.497Z,47.85
2022-08-30T03:49:55.389Z,47.56
2022-08-30T03:52:40.652Z,48.23
2022-08-30T03:55:24.742Z,48.32
2022-08-30T03:58:08.603Z,47.91
2022-08-30T04:00:52.500Z,47.76
2022-08-30T04:03:37.345Z,47.56
2022-08-30T04:06:22.313Z,47.12
2022-08-30T04:09:07.825Z,47.40
2022-08-30T04:11:51.947Z,48.26
2022-08-30T04:14:35.907Z,48.09
2022-08-30T04:17:20.066Z,48.37
2022-08-30T04:20:04.501Z,48.07
2022-08-30T04:22:48.743Z,47.85
2022-08-30T04:25:34.504Z,47.57
2022-08-30T04:28:18.445Z,48.47
2022-08-30T04:31:03.430Z,48.40
2022-08-30T04:33:47.361Z,48.50
2022-08-30T04:36:31.300Z,47.58
2022-08-30T04:39:15.174Z,48.36
2022-08-30T04:42:01.056Z,48.87
2022-08-30T04:44:44.892Z,48.15
2022-08-30T04:47:28.951Z,48.24
2022-08-30T04:50:16.481Z,47.01
2022-08-30T04:53:00.831Z,46.65
2022-08-30T04:55:45.313Z,46.50
2022-08-30T04:58:30.570Z,46.36
2022-08-30T05:01:15.517Z,46.24
2022-08-30T05:04:04.295Z,46.73
2022-08-30T05:06:48.819Z,46.93
2022-08-30T05:09:32.582Z,46.81
2022-08-30T05:12:16.384Z,46.62
2022-08-30T05:15:01.595Z,48.10
2022-08-30T05:17:46.905Z,48.17
2022-08-30T05:20:30.865Z,48.04
2022-08-30T05:23:14.732Z,49.47
2022-08-30T05:25:58.638Z,48.01
2022-08-30T05:28:43.199Z,47.13
2022-08-30T05:31:31.173Z,46.17
2022-08-30T05:34:15.096Z,45.44
2022-08-30T05:36:59.666Z,44.93
2022-08-30T05:39:51.599Z,44.71
2022-08-30T05:42:36.711Z,44.38
2022-08-30T05:45:20.575Z,44.28
2022-08-30T05:48:06.379Z,44.31
2022-08-30T05:50:50.239Z,43.66
2022-08-30T05:53:34.359Z,43.09
2022-08-30T05:56:19.840Z,42.99
2022-08-30T05:59:05.395Z,43.06
2022-08-30T06:01:49.359Z,43.91
2022-08-30T06:04:34.586Z,43.97
2022-08-30T06:07:22.497Z,43.66
2022-08-30T06:10:07.846Z,42.05
2022-08-30T06:12:51.693Z,42.11
2022-08-30T06:15:35.635Z,41.48
2022-08-30T06:18:23.637Z,42.47
2022-08-30T06:21:18.485Z,41.26
2022-08-30T06:24:03.847Z,41.54
2022-08-30T06:26:49.158Z,41.76
2022-08-30T06:29:34.181Z,41.59
2022-08-30T06:32:18.124Z,40.72
2022-08-30T06:35:02.170Z,40.32
2022-08-30T06:37:48.166Z,40.25
2022-08-30T06:40:32.458Z,39.53
2022-08-30T06:43:16.316Z,39.28
2022-08-30T06:46:03.609Z,39.58
2022-08-30T06:48:48.479Z,39.48
2022-08-30T06:51:35.104Z,39.69
2022-08-30T06:54:20.405Z,39.96
2022-08-30T06:57:04.303Z,40.36
2022-08-30T06:59:48.135Z,41.01
2022-08-30T07:02:32.053Z,40.65
2022-08-30T07:05:18.899Z,41.11
2022-08-30T07:08:03.150Z,41.96
2022-08-30T07:10:48.976Z,42.59
2022-08-30T07:13:33.131Z,42.96
2022-08-30T07:16:17.028Z,42.42
2022-08-30T07:19:00.568Z,43.04
2022-08-30T07:21:45.189Z,42.64
2022-08-30T07:24:29.623Z,42.30
2022-08-30T07:27:14.904Z,42.10
2022-08-30T07:29:59.509Z,42.00
2022-08-30T07:32:43.328Z,41.37
2022-08-30T07:35:27.434Z,41.41
2022-08-30T07:38:14.299Z,41.91
2022-08-30T07:40:59.289Z,42.67
2022-08-30T07:43:45.321Z,41.76
2022-08-30T07:46:29.457Z,41.17
2022-08-30T07:49:13.672Z,41.96
2022-08-30T07:51:58.389Z,41.94
2022-08-30T07:54:43.150Z,40.88
2022-08-30T07:57:27.596Z,40.83
2022-08-30T08:00:13.691Z,40.89
2022-08-30T08:02:57.574Z,40.70
2022-08-30T08:05:43.123Z,40.15
2022-08-30T08:08:27.079Z,40.10
2022-08-30T08:11:16.278Z,40.33
2022-08-30T08:14:00.400Z,40.73
2022-08-30T08:16:46.769Z,39.57
2022-08-30T08:19:30.572Z,38.86
2022-08-30T08:22:20.891Z,38.32
2022-08-30T08:25:06.212Z,37.32
2022-08-30T08:27:51.935Z,38.85
2022-08-30T08:30:37.636Z,40.65
2022-08-30T08:33:23.875Z,40.32
2022-08-30T08:36:09.445Z,39.48
2022-08-30T08:38:53.990Z,40.44
2022-08-30T08:41:51.586Z,40.09
2022-08-30T08:44:54.421Z,38.66
2022-08-30T08:47:41.635Z,40.61
2022-08-30T08:50:27.467Z,40.22
2022-08-30T08:53:46.629Z,41.39
2022-08-30T08:56:30.980Z,41.07
2022-08-30T08:59:17.173Z,40.50
2022-08-30T09:02:03.452Z,39.65
2022-08-30T09:04:47.915Z,40.12
2022-08-30T09:07:39.527Z,40.22
2022-08-30T09:10:47.121Z,40.41
2022-08-30T09:13:29.637Z,38.46
2022-08-30T09:16:54.384Z,39.10
2022-08-30T09:19:44.339Z,40.72
2022-08-30T09:22:35.928Z,40.95
2022-08-30T09:25:25.652Z,40.41
2022-08-30T09:28:12.989Z,40.43
2022-08-30T09:31:04.854Z,39.79
2022-08-30T09:33:55.812Z,39.09
2022-08-30T09:36:43.897Z,36.74
2022-08-30T09:39:32.671Z,37.58
2022-08-30T09:42:21.315Z,35.47
2022-08-30T09:45:11.838Z,34.49
2022-08-30T09:47:55.813Z,34.22
2022-08-30T09:50:39.695Z,34.28
2022-08-30T09:53:32.401Z,33.85
2022-08-30T09:56:24.871Z,33.68
2022-08-30T09:59:22.496Z,34.58
2022-08-30T10:02:23.312Z,34.03
2022-08-30T10:05:15.740Z,33.15
2022-08-30T10:08:13.609Z,33.47
2022-08-30T10:11:02.162Z,33.34
2022-08-30T10:14:05.253Z,33.49
2022-08-30T10:16:59.535Z,33.89
2022-08-30T10:19:57.093Z,34.03
2022-08-30T10:22:46.723Z,34.25
2022-08-30T10:25:35.328Z,35.06
2022-08-30T10:28:24.598Z,35.27
2022-08-30T10:31:15.979Z,35.43
2022-08-30T10:34:04.511Z,35.40
2022-08-30T10:36:54.629Z,37.88
2022-08-30T10:39:44.591Z,39.10
2022-08-30T10:42:37.973Z,40.45
2022-08-30T10:45:25.261Z,41.42
2022-08-30T10:48:19.437Z,40.84
2022-08-30T10:51:10.897Z,41.02
2022-08-30T10:54:01.020Z,40.55
2022-08-30T10:56:46.914Z,41.28
2022-08-30T10:59:31.569Z,40.88
2022-08-30T11:02:32.106Z,39.77
2022-08-30T11:05:34.569Z,39.65
2022-08-30T11:08:38.427Z,39.91
2022-08-30T11:11:29.792Z,40.56
2022-08-30T11:14:18.675Z,40.98
2022-08-30T11:17:03.218Z,40.73
2022-08-30T11:19:47.547Z,41.05
2022-08-30T11:22:38.992Z,40.49
2022-08-30T11:25:53.329Z,41.33
2022-08-30T11:29:05.256Z,40.45
2022-08-30T11:31:50.507Z,39.63
2022-08-30T11:34:57.647Z,38.91
2022-08-30T11:37:44.768Z,39.86
2022-08-30T11:40:51.252Z,39.48
2022-08-30T11:43:55.934Z,39.49
2022-08-30T11:46:42.352Z,38.64
2022-08-30T11:49:46.394Z,38.64
2022-08-30T11:52:42.153Z,38.95
2022-08-30T11:55:45.264Z,39.24
2022-08-30T11:58:44.084Z,39.32
2022-08-30T12:01:51.134Z,39.11
2022-08-30T12:04:47.525Z,40.13
2022-08-30T12:07:59.487Z,40.04
2022-08-30T12:10:47.367Z,39.59
2022-08-30T12:13:58.645Z,40.30
2022-08-30T12:16:59.812Z,40.54
2022-08-30T12:19:50.321Z,40.01
2022-08-30T12:22:37.970Z,39.95
2022-08-30T12:25:27.883Z,40.06
2022-08-30T12:28:18.425Z,39.39
2022-08-30T12:31:11.043Z,39.55
2022-08-30T12:33:58.816Z,39.97
2022-08-30T12:36:53.753Z,40.94
2022-08-30T12:39:40.338Z,41.49
2022-08-30T12:42:29.319Z,41.58
2022-08-30T12:45:17.211Z,40.97
2022-08-30T12:48:04.523Z,40.94
2022-08-30T12:50:52.098Z,37.57
2022-08-30T12:53:41.843Z,37.47
2022-08-30T12:56:56.526Z,39.28
2022-08-30T12:59:54.210Z,40.20
2022-08-30T13:02:52.406Z,40.27
2022-08-30T13:05:46.816Z,40.37
2022-08-30T13:08:37.036Z,38.90
2022-08-30T13:11:29.661Z,39.25
2022-08-30T13:14:31.315Z,39.56
2022-08-30T13:17:24.557Z,39.63
2022-08-30T13:20:27.349Z,38.95
2022-08-30T13:23:12.203Z,40.01
2022-08-30T13:25:56.024Z,40.28
2022-08-30T13:28:51.607Z,41.36
2022-08-30T13:31:37.189Z,41.14
2022-08-30T13:34:22.649Z,43.36
2022-08-30T13:37:44.332Z,43.07
2022-08-30T13:40:16.022Z,41.54
2022-08-30T13:43:00.406Z,41.07
2022-08-30T13:45:44.303Z,41.69
2022-08-30T13:48:28.407Z,41.01
2022-08-30T13:51:12.684Z,40.29
2022-08-30T13:53:58.215Z,39.48
2022-08-30T13:56:42.313Z,39.29
2022-08-30T13:59:26.818Z,38.42
2022-08-30T14:02:11.605Z,38.06
2022-08-30T14:04:58.682Z,37.58
2022-08-30T14:07:46.996Z,38.96
2022-08-30T14:10:36.448Z,39.23
2022-08-30T14:13:29.125Z,39.88
2022-08-30T14:16:28.749Z,40.96
2022-08-30T14:19:14.118Z,42.00
2022-08-30T14:21:58.003Z,42.31
2022-08-30T14:24:41.846Z,41.54
2022-08-30T14:27:27.205Z,41.71
2022-08-30T14:30:12.234Z,41.68
2022-08-30T14:32:56.216Z,39.88
2022-08-30T14:35:40.134Z,38.99
2022-08-30T14:38:24.049Z,39.00
2022-08-30T14:41:08.533Z,39.42
2022-08-30T14:43:54.808Z,39.61
2022-08-30T14:46:38.868Z,39.92
2022-08-30T14:49:25.290Z,40.67
2022-08-30T14:52:10.553Z,41.36
2022-08-30T14:54:58.598Z,42.44
2022-08-30T14:57:44.130Z,42.12
2022-08-30T15:00:29.509Z,43.62
2022-08-30T15:03:13.534Z,41.95
2022-08-30T15:05:57.447Z,43.52
2022-08-30T15:08:41.576Z,43.35
2022-08-30T15:11:26.905Z,43.63
2022-08-30T15:14:16.210Z,43.62
2022-08-30T15:17:03.441Z,43.41
2022-08-30T15:19:47.292Z,43.66
2022-08-30T15:22:32.129Z,42.50
2022-08-30T15:25:18.528Z,44.64
2022-08-30T15:28:02.498Z,44.58
2022-08-30T15:30:47.293Z,44.98
2022-08-30T15:33:32.996Z,46.81
2022-08-30T15:36:18.456Z,47.52
2022-08-30T15:39:02.351Z,49.45
2022-08-30T15:41:54.686Z,49.23
2022-08-30T15:44:41.144Z,47.45
2022-08-30T15:47:25.367Z,48.31
2022-08-30T15:50:11.291Z,48.11
2022-08-30T15:52:55.231Z,47.41
2022-08-30T15:55:39.103Z,47.31
2022-08-30T15:58:23.176Z,47.31
2022-08-30T16:01:07.462Z,45.53
2022-08-30T16:03:51.455Z,47.52
2022-08-30T16:06:38.212Z,47.64
2022-08-30T16:09:22.844Z,47.64
2022-08-30T16:12:08.064Z,47.40
2022-08-30T16:14:53.953Z,47.69
2022-08-30T16:17:37.784Z,46.72
2022-08-30T16:20:23.283Z,47.25
2022-08-30T16:23:08.579Z,47.12
2022-08-30T16:25:52.400Z,46.33
2022-08-30T16:28:38.063Z,47.71
2022-08-30T16:31:23.967Z,48.48
2022-08-30T16:34:08.142Z,48.48
2022-08-30T16:36:51.935Z,49.14
2022-08-30T16:39:37.173Z,48.63
2022-08-30T16:42:21.499Z,48.52
2022-08-30T16:45:10.320Z,48.66
2022-08-30T16:47:54.989Z,48.73
2022-08-30T16:50:41.140Z,48.50
2022-08-30T16:53:26.260Z,48.71
2022-08-30T16:56:14.002Z,49.79
2022-08-30T16:59:02.002Z,50.11
2022-08-30T17:01:46.346Z,50.79
2022-08-30T17:04:32.296Z,50.55
2022-08-30T17:07:20.942Z,51.10
2022-08-30T17:10:06.968Z,52.17
2022-08-30T17:12:54.173Z,53.42
2022-08-30T17:15:38.204Z,55.36
2022-08-30T17:18:23.702Z,55.26
2022-08-30T17:21:07.636Z,56.21
2022-08-30T17:23:52.248Z,56.71
2022-08-30T17:26:39.921Z,58.10
2022-08-30T17:29:25.052Z,58.93
2022-08-30T17:32:09.735Z,60.17
2022-08-30T17:34:53.773Z,60.96
2022-08-30T17:37:37.641Z,62.57
2022-08-30T17:40:21.859Z,62.80
2022-08-30T17:43:05.910Z,63.52
2022-08-30T17:45:51.544Z,64.41
2022-08-30T17:48:36.010Z,64.86
2022-08-30T17:51:20.849Z,64.92
2022-08-30T17:54:06.196Z,65.96
2022-08-30T17:56:50.163Z,66.02
2022-08-30T17:59:36.164Z,67.19
2022-08-30T18:02:22.832Z,65.73
2022-08-30T18:05:12.309Z,67.91
2022-08-30T18:07:56.220Z,68.90
2022-08-30T18:10:40.232Z,70.96
2022-08-30T18:13:24.128Z,71.47
2022-08-30T18:16:08.827Z,71.31
2022-08-30T18:18:57.695Z,72.93
2022-08-30T18:21:41.673Z,72.98
2022-08-30T18:24:26.172Z,73.52
2022-08-30T18:27:10.558Z,73.59
2022-08-30T18:29:54.479Z,74.07
2022-08-30T18:32:39.257Z,75.03
2022-08-30T18:35:24.468Z,74.08
2022-08-30T18:38:09.087Z,73.54
2022-08-30T18:41:01.429Z,72.62
2022-08-30T18:43:45.924Z,71.80
2022-08-30T18:46:30.460Z,72.75
2022-08-30T18:49:16.488Z,73.86
2022-08-30T18:52:02.833Z,74.10
2022-08-30T18:54:53.042Z,73.97
2022-08-30T18:57:37.297Z,74.20
2022-08-30T19:00:21.410Z,73.42
2022-08-30T19:03:05.703Z,72.61
2022-08-30T19:05:49.610Z,73.28
2022-08-30T19:08:35.643Z,72.08
2022-08-30T19:11:19.516Z,70.53
2022-08-30T19:14:03.370Z,70.50
2022-08-30T19:16:47.205Z,68.98
2022-08-30T19:19:31.156Z,69.81
2022-08-30T19:22:15.542Z,68.79
2022-08-30T19:25:01.053Z,69.83
2022-08-30T19:27:47.917Z,70.41
2022-08-30T19:30:35.576Z,71.92
2022-08-30T19:33:19.935Z,72.61
2022-08-30T19:36:05.179Z,73.00
2022-08-30T19:38:49.433Z,73.97
2022-08-30T19:41:35.520Z,72.32
2022-08-30T19:44:19.778Z,71.87
2022-08-30T19:47:05.397Z,73.96
2022-08-30T19:49:49.535Z,74.98
2022-08-30T19:52:36.089Z,76.38
2022-08-30T19:55:23.819Z,76.38
2022-08-30T19:58:14.450Z,76.12
2022-08-30T20:01:00.996Z,77.06
2022-08-30T20:03:57.388Z,75.91
2022-08-30T20:06:43.105Z,77.12
2022-08-30T20:09:27.952Z,76.86
2022-08-30T20:12:12.052Z,77.73
2022-08-30T20:14:57.588Z,79.45
2022-08-30T20:18:02.516Z,79.38
2022-08-30T20:20:49.535Z,81.48
2022-08-30T20:23:35.581Z,83.25
2022-08-30T20:26:19.767Z,83.26
2022-08-30T20:29:04.510Z,82.72
2022-08-30T20:31:50.253Z,84.86
2022-08-30T20:34:34.463Z,84.02
2022-08-30T20:37:19.745Z,84.59
2022-08-30T20:40:05.907Z,84.46
2022-08-30T20:42:50.041Z,84.12
2022-08-30T20:45:35.154Z,84.83
2022-08-30T20:48:21.064Z,84.42
2022-08-30T20:51:08.380Z,84.27
2022-08-30T20:53:52.584Z,83.96
2022-08-30T20:56:37.620Z,83.40
2022-08-30T20:59:21.757Z,84.57
2022-08-30T21:02:06.644Z,84.52
2022-08-30T21:04:53.166Z,85.16
2022-08-30T21:07:37.646Z,85.31
2022-08-30T21:10:23.485Z,85.63
2022-08-30T21:13:08.193Z,84.64
2022-08-30T21:15:54.824Z,84.20
2022-08-30T21:18:39.467Z,83.51
2022-08-30T21:21:26.771Z,82.76
2022-08-30T21:24:11.057Z,83.90
2022-08-30T21:26:55.854Z,84.40
2022-08-30T21:29:39.785Z,85.04
2022-08-30T21:32:23.613Z,84.05
2022-08-30T21:35:26.450Z,83.70
2022-08-30T21:38:12.204Z,82.71
2022-08-30T21:40:56.292Z,81.71
2022-08-30T21:43:40.240Z,81.53
2022-08-30T21:46:24.123Z,81.73
2022-08-30T21:49:10.519Z,82.62
2022-08-30T21:51:55.466Z,83.38
2022-08-30T21:54:40.731Z,85.26
2022-08-30T21:57:24.886Z,85.33
2022-08-30T22:00:10.415Z,86.62
2022-08-30T22:02:54.627Z,87.08
2022-08-30T22:05:38.542Z,85.14
2022-08-30T22:08:22.455Z,84.09
2022-08-30T22:11:09.319Z,84.86
2022-08-30T22:13:54.623Z,88.39
2022-08-30T22:16:39.902Z,88.07
2022-08-30T22:19:23.899Z,89.50
2022-08-30T22:22:07.855Z,87.86
2022-08-30T22:24:51.601Z,88.35
2022-08-30T22:27:36.853Z,89.07
2022-08-30T22:30:20.894Z,89.34
2022-08-30T22:33:05.093Z,89.99
2022-08-30T22:35:48.959Z,90.78
2022-08-30T22:38:32.843Z,91.01
2022-08-30T22:41:18.675Z,91.58
2022-08-30T22:44:07.007Z,91.80
2022-08-30T22:46:50.850Z,90.02
2022-08-30T22:49:34.688Z,90.84
2022-08-30T22:52:18.547Z,91.27
2022-08-30T22:55:09.261Z,90.39
2022-08-30T22:57:54.525Z,91.82
2022-08-30T23:00:42.907Z,90.81
2022-08-30T23:03:38.540Z,90.03
2022-08-30T23:06:23.055Z,90.68
2022-08-30T23:09:08.181Z,91.51
2022-08-30T23:11:55.275Z,91.91
2022-08-30T23:14:39.182Z,91.22
2022-08-30T23:17:24.564Z,92.63
2022-08-30T23:20:09.685Z,93.94
2022-08-30T23:22:58.058Z,94.58
2022-08-30T23:25:58.894Z,96.66
2022-08-30T23:28:59.804Z,97.77
2022-08-30T23:32:01.307Z,98.51
2022-08-30T23:35:04.519Z,99.00
2022-08-30T23:38:05.946Z,99.22
2022-08-30T23:41:07.286Z,99.32
2022-08-30T23:44:08.733Z,97.51
2022-08-30T23:47:10.263Z,98.00
2022-08-30T23:50:13.648Z,96.64
2022-08-30T23:53:14.645Z,96.31
2022-08-30T23:56:16.072Z,96.38
2022-08-30T23:59:17.426Z,97.02
